Time;durP1;ratioP1;P1;durP2;ratioP2;P2;SDS_P1;SDS_P2;PMS_P1;PMS_P2;Temp;Humidity;BMP_temperature;BMP_pressure;BME280_temperature;BME280_humidity;BME280_pressure;Samples;Min_cycle;Max_cycle;Signal;HPM_P1;HPM_P2
2021/05/26 00:01:02;;;;;;;31.70;17.27;;;8.70;99.20;;;;;;4961459;28;20493;-81
2021/05/26 00:03:34;;;;;;;28.13;16.95;;;8.70;99.30;;;;;;4963703;28;20043;-81
2021/05/26 00:05:59;;;;;;;32.05;16.75;;;8.80;99.30;;;;;;4957172;28;20825;-81
2021/05/26 00:08:28;;;;;;;35.33;17.83;;;8.70;99.20;;;;;;4947456;28;20039;-81
2021/05/26 00:10:55;;;;;;;29.40;17.48;;;8.70;99.10;;;;;;4959256;28;20047;-81
2021/05/26 00:13:21;;;;;;;34.88;18.42;;;8.70;99.10;;;;;;4962601;28;20043;-82
2021/05/26 00:15:48;;;;;;;40.40;19.23;;;8.60;99.20;;;;;;4964724;28;20042;-81
2021/05/26 00:18:14;;;;;;;31.63;18.58;;;8.60;99.10;;;;;;4960434;28;20430;-81
2021/05/26 00:20:41;;;;;;;38.63;20.08;;;8.50;99.10;;;;;;4963716;28;20035;-81
2021/05/26 00:23:07;;;;;;;42.83;21.42;;;8.50;99.20;;;;;;4946937;28;20244;-81
2021/05/26 00:25:33;;;;;;;33.45;20.20;;;8.50;99.20;;;;;;4963437;28;20313;-81
2021/05/26 00:27:58;;;;;;;35.05;19.98;;;8.50;99.20;;;;;;4971197;28;20102;-82
2021/05/26 00:30:30;;;;;;;30.48;18.90;;;8.50;99.20;;;;;;4965095;28;20190;-81
2021/05/26 00:32:56;;;;;;;35.05;20.52;;;8.50;99.30;;;;;;4960710;28;20038;-81
2021/05/26 00:35:23;;;;;;;35.30;21.80;;;8.50;99.30;;;;;;4963443;28;20119;-81
2021/05/26 00:37:49;;;;;;;35.08;21.45;;;8.50;99.30;;;;;;4966966;28;20049;-81
2021/05/26 00:40:15;;;;;;;41.92;22.25;;;8.50;99.30;;;;;;4980538;28;20174;-81
2021/05/26 00:42:41;;;;;;;38.83;22.33;;;8.40;99.30;;;;;;4952394;28;20077;-81
2021/05/26 00:45:08;;;;;;;36.42;22.88;;;8.50;99.40;;;;;;4976991;28;20030;-81
2021/05/26 00:47:41;;;;;;;41.97;23.88;;;8.40;99.40;;;;;;4958171;28;20039;-81
2021/05/26 00:50:11;;;;;;;47.80;24.40;;;8.40;99.40;;;;;;4990689;28;20090;-81
2021/05/26 00:52:37;;;;;;;38.80;23.75;;;8.50;99.50;;;;;;4972385;28;20028;-81
2021/05/26 00:55:04;;;;;;;47.97;24.00;;;8.40;99.40;;;;;;4973040;28;20081;-80
2021/05/26 00:57:30;;;;;;;46.25;23.85;;;8.50;99.50;;;;;;4939247;28;20049;-82
2021/05/26 00:59:56;;;;;;;42.85;23.40;;;8.50;99.50;;;;;;4939357;28;20106;-81
2021/05/26 01:02:22;;;;;;;41.45;23.52;;;8.40;99.50;;;;;;4935999;28;20073;-81
2021/05/26 01:04:48;;;;;;;50.38;25.17;;;8.50;99.50;;;;;;4956632;28;20062;-80
2021/05/26 01:07:14;;;;;;;51.33;25.05;;;8.50;99.60;;;;;;4970151;28;20030;-81
2021/05/26 01:09:40;;;;;;;56.58;26.05;;;8.40;99.60;;;;;;4956438;28;20050;-81
2021/05/26 01:12:07;;;;;;;52.78;25.77;;;8.40;99.60;;;;;;4969380;28;20069;-81
2021/05/26 01:14:33;;;;;;;47.90;24.08;;;8.40;99.70;;;;;;4949208;28;20070;-81
2021/05/26 01:16:59;;;;;;;55.28;25.23;;;8.50;99.80;;;;;;4966987;28;20042;-81
2021/05/26 01:19:25;;;;;;;55.15;25.50;;;8.50;99.80;;;;;;4969321;28;20057;-81
2021/05/26 01:21:52;;;;;;;48.55;25.55;;;8.50;99.80;;;;;;4970458;28;20062;-81
2021/05/26 01:24:18;;;;;;;54.67;26.02;;;8.50;99.90;;;;;;4970205;28;20553;-81
2021/05/26 01:26:46;;;;;;;55.20;26.00;;;8.50;99.90;;;;;;4963905;28;20133;-81
2021/05/26 01:29:11;;;;;;;40.90;24.83;;;8.50;99.90;;;;;;4965399;28;20039;-81
2021/05/26 01:31:37;;;;;;;56.63;25.70;;;8.50;99.90;;;;;;4966600;28;20545;-81
2021/05/26 01:34:04;;;;;;;52.83;25.77;;;8.60;99.90;;;;;;4966831;28;20047;-81
2021/05/26 01:36:32;;;;;;;53.30;26.42;;;8.60;99.90;;;;;;4960826;28;20402;-80
2021/05/26 01:38:59;;;;;;;49.92;24.02;;;8.60;99.90;;;;;;4965404;28;20031;-81
2021/05/26 01:41:25;;;;;;;46.00;24.67;;;8.60;99.90;;;;;;4963848;28;20039;-80
2021/05/26 01:43:51;;;;;;;48.92;23.75;;;8.60;99.90;;;;;;4950733;28;20042;-81
2021/05/26 01:46:17;;;;;;;43.58;23.95;;;8.60;99.90;;;;;;4949225;28;20085;-81
2021/05/26 01:48:47;;;;;;;51.38;24.45;;;8.60;99.90;;;;;;4964920;28;20046;-81
2021/05/26 01:51:13;;;;;;;45.85;22.88;;;8.60;99.90;;;;;;4967805;28;20042;-81
2021/05/26 01:53:38;;;;;;;51.75;24.10;;;8.60;99.90;;;;;;4956092;28;20046;-81
2021/05/26 01:56:12;;;;;;;49.35;24.70;;;8.60;99.90;;;;;;4965856;28;20035;-81
2021/05/26 01:58:38;;;;;;;39.00;22.45;;;8.70;99.90;;;;;;4966492;28;20091;-81
2021/05/26 02:01:04;;;;;;;44.55;23.08;;;8.70;99.90;;;;;;4935545;28;20114;-81
2021/05/26 02:03:30;;;;;;;41.90;22.98;;;8.70;99.90;;;;;;4949418;28;20035;-81
2021/05/26 02:05:56;;;;;;;44.38;23.20;;;8.70;99.90;;;;;;4965426;28;20043;-81
2021/05/26 02:08:22;;;;;;;42.45;22.35;;;8.70;99.90;;;;;;4966654;28;20034;-81
2021/05/26 02:13:32;;;;;;;49.75;25.00;;;8.70;99.90;;;;;;4964128;28;20039;-82
2021/05/26 02:15:57;;;;;;;43.33;24.52;;;8.70;99.90;;;;;;4947929;28;20045;-81
2021/05/26 02:18:23;;;;;;;42.85;23.60;;;8.80;99.90;;;;;;4976112;28;20481;-82
2021/05/26 02:20:49;;;;;;;45.60;24.60;;;8.80;99.90;;;;;;4959709;28;20521;-81
2021/05/26 02:23:15;;;;;;;39.00;23.65;;;8.80;99.90;;;;;;4993417;28;20035;-81
2021/05/26 02:25:41;;;;;;;42.00;23.63;;;8.90;99.90;;;;;;4962452;28;20538;-81
2021/05/26 02:28:07;;;;;;;44.25;24.95;;;8.90;99.90;;;;;;4947770;28;20130;-81
2021/05/26 02:30:34;;;;;;;38.25;22.88;;;8.90;99.90;;;;;;4965478;28;20151;-80
2021/05/26 02:32:59;;;;;;;47.85;23.05;;;8.90;99.90;;;;;;4976386;28;20409;-82
2021/05/26 02:35:25;;;;;;;42.65;23.45;;;8.90;99.90;;;;;;4962550;28;20039;-80
2021/05/26 02:37:51;;;;;;;41.22;23.58;;;8.90;99.90;;;;;;4961131;28;20449;-81
2021/05/26 02:40:17;;;;;;;43.78;23.40;;;8.90;99.90;;;;;;4956913;28;20043;-81
2021/05/26 02:42:43;;;;;;;38.58;22.90;;;8.90;99.90;;;;;;4957232;28;20030;-81
2021/05/26 02:45:09;;;;;;;36.63;21.83;;;8.90;99.90;;;;;;4949293;28;20093;-81
2021/05/26 02:47:35;;;;;;;45.53;24.05;;;8.90;99.90;;;;;;4947859;28;20066;-81
2021/05/26 02:50:00;;;;;;;39.67;22.60;;;9.00;99.90;;;;;;4946117;28;20038;-81
2021/05/26 02:52:26;;;;;;;31.77;20.50;;;9.00;99.90;;;;;;4928955;28;20046;-81
2021/05/26 02:54:52;;;;;;;35.65;21.08;;;9.00;99.90;;;;;;4944353;28;20563;-81
2021/05/26 02:57:20;;;;;;;38.35;22.77;;;9.00;99.90;;;;;;4958758;28;20569;-81
2021/05/26 02:59:46;;;;;;;34.03;22.45;;;9.00;99.90;;;;;;4961099;28;20041;-82
2021/05/26 03:02:11;;;;;;;37.13;23.30;;;9.00;99.90;;;;;;4964558;28;20026;-81
2021/05/26 03:04:37;;;;;;;41.70;24.50;;;9.00;99.90;;;;;;4959479;28;20150;-81
2021/05/26 03:07:04;;;;;;;41.58;24.55;;;9.10;99.90;;;;;;4958728;28;20054;-81
2021/05/26 03:09:29;;;;;;;47.55;27.35;;;9.00;99.90;;;;;;4938108;28;20026;-81
2021/05/26 03:11:55;;;;;;;57.83;28.35;;;9.00;99.90;;;;;;4963981;28;20038;-81
2021/05/26 03:14:21;;;;;;;56.72;30.05;;;9.10;99.90;;;;;;5000655;28;20035;-81
2021/05/26 03:16:47;;;;;;;59.42;31.48;;;9.00;99.90;;;;;;4962184;28;20105;-81
2021/05/26 03:19:12;;;;;;;59.63;32.15;;;9.10;99.90;;;;;;4946415;28;20070;-82
2021/05/26 03:21:39;;;;;;;63.47;34.40;;;9.10;99.90;;;;;;4962823;28;20039;-81
2021/05/26 03:24:07;;;;;;;63.60;34.83;;;9.10;99.90;;;;;;4947818;28;20043;-82
2021/05/26 03:26:33;;;;;;;68.82;35.58;;;9.10;99.90;;;;;;4978873;28;20046;-82
2021/05/26 03:28:59;;;;;;;63.28;33.75;;;9.10;99.90;;;;;;4945089;28;20031;-81
2021/05/26 03:31:25;;;;;;;73.15;35.78;;;9.10;99.90;;;;;;4963553;28;20031;-82
2021/05/26 03:33:50;;;;;;;61.30;33.88;;;9.10;99.90;;;;;;4945373;28;20125;-81
2021/05/26 03:36:16;;;;;;;66.70;36.20;;;9.10;99.90;;;;;;4947773;28;20514;-81
2021/05/26 03:38:42;;;;;;;68.10;35.17;;;9.10;99.90;;;;;;4958482;28;20039;-81
2021/05/26 03:41:08;;;;;;;73.28;36.70;;;9.10;99.90;;;;;;4961205;28;20034;-81
2021/05/26 03:43:34;;;;;;;61.53;35.28;;;9.10;99.90;;;;;;4965341;28;20045;-81
2021/05/26 03:45:59;;;;;;;67.28;36.75;;;9.10;99.90;;;;;;4959755;28;20057;-81
2021/05/26 03:48:25;;;;;;;60.78;35.42;;;9.20;99.90;;;;;;4937771;28;20134;-80
2021/05/26 03:50:51;;;;;;;75.05;36.50;;;9.10;99.90;;;;;;4960841;28;20109;-82
2021/05/26 03:53:17;;;;;;;61.42;34.17;;;9.20;99.90;;;;;;4963224;28;20042;-81
2021/05/26 03:55:43;;;;;;;61.75;35.38;;;9.20;99.90;;;;;;4946641;28;20092;-81
2021/05/26 03:58:10;;;;;;;66.32;37.70;;;9.20;99.90;;;;;;4962551;28;20498;-80
2021/05/26 04:00:36;;;;;;;72.32;36.50;;;9.20;99.90;;;;;;4962607;28;20034;-81
2021/05/26 04:03:02;;;;;;;75.75;38.47;;;9.20;99.90;;;;;;4962708;28;20486;-81
2021/05/26 04:05:28;;;;;;;73.57;36.60;;;9.20;99.90;;;;;;4949197;28;20370;-81
2021/05/26 04:07:54;;;;;;;72.03;34.20;;;9.20;99.90;;;;;;4945687;28;20042;-82
2021/05/26 04:10:20;;;;;;;60.40;34.00;;;9.10;99.90;;;;;;4947822;28;20041;-82
2021/05/26 04:12:46;;;;;;;68.43;33.88;;;9.10;99.80;;;;;;4960470;28;20034;-80
2021/05/26 04:15:12;;;;;;;72.03;36.72;;;9.10;99.80;;;;;;4958023;28;20065;-80
2021/05/26 04:17:38;;;;;;;64.32;35.97;;;9.10;99.80;;;;;;4961612;28;20057;-81
2021/05/26 04:20:05;;;;;;;52.88;30.08;;;9.10;99.80;;;;;;4959021;28;20047;-81
2021/05/26 04:22:32;;;;;;;52.90;28.10;;;9.10;99.80;;;;;;4961016;28;20035;-81
2021/05/26 04:24:58;;;;;;;53.13;28.52;;;9.10;99.70;;;;;;4959547;28;20114;-81
2021/05/26 04:27:24;;;;;;;46.25;25.55;;;9.10;99.70;;;;;;4976919;28;20553;-82
2021/05/26 04:29:50;;;;;;;49.72;26.77;;;9.00;99.60;;;;;;4964082;28;20054;-80
2021/05/26 04:32:16;;;;;;;51.17;25.02;;;9.00;99.60;;;;;;4964808;28;20046;-82
2021/05/26 04:34:42;;;;;;;38.38;22.98;;;9.00;99.60;;;;;;4965085;28;21033;-81
2021/05/26 04:37:07;;;;;;;45.28;22.13;;;9.00;99.60;;;;;;4966824;28;20149;-81
2021/05/26 04:39:33;;;;;;;39.22;23.27;;;9.00;99.50;;;;;;4953696;28;20470;-81
2021/05/26 04:41:59;;;;;;;45.90;22.23;;;8.90;99.50;;;;;;4934325;28;20039;-80
2021/05/26 04:44:25;;;;;;;43.03;20.55;;;8.90;99.50;;;;;;4968228;28;20058;-81
2021/05/26 04:46:51;;;;;;;35.28;21.60;;;9.00;99.50;;;;;;4959313;28;20053;-81
2021/05/26 04:49:17;;;;;;;38.70;20.63;;;8.90;99.40;;;;;;4951459;28;20244;-81
2021/05/26 04:51:42;;;;;;;37.78;21.75;;;9.00;99.40;;;;;;4932697;28;20058;-81
2021/05/26 04:54:08;;;;;;;38.08;20.42;;;8.90;99.40;;;;;;4964571;28;20533;-81
2021/05/26 04:56:34;;;;;;;42.17;19.95;;;9.00;99.40;;;;;;4964031;28;20030;-81
2021/05/26 04:59:00;;;;;;;31.48;19.30;;;9.00;99.40;;;;;;4977624;28;20038;-80
2021/05/26 05:01:26;;;;;;;36.17;19.38;;;9.00;99.30;;;;;;4949516;28;20054;-80
2021/05/26 05:03:52;;;;;;;36.63;20.75;;;9.00;99.30;;;;;;4952780;28;20030;-80
2021/05/26 05:06:20;;;;;;;34.42;19.48;;;9.10;99.30;;;;;;4979750;28;20039;-80
2021/05/26 05:08:47;;;;;;;30.88;17.38;;;9.10;99.20;;;;;;4950696;28;20139;-81
2021/05/26 05:11:13;;;;;;;25.25;14.82;;;9.10;99.10;;;;;;4976817;28;20050;-81
2021/05/26 05:13:39;;;;;;;27.05;15.85;;;9.10;99.10;;;;;;4935594;28;20039;-81
2021/05/26 05:16:05;;;;;;;26.63;15.80;;;9.20;99.10;;;;;;4969164;28;20031;-81
2021/05/26 05:18:31;;;;;;;25.65;14.85;;;9.30;99.20;;;;;;4963653;28;20089;-82
2021/05/26 05:20:56;;;;;;;26.48;14.13;;;9.30;98.90;;;;;;4955867;28;20042;-82
2021/05/26 05:23:22;;;;;;;26.55;14.18;;;9.40;98.90;;;;;;4967556;28;20338;-82
2021/05/26 05:25:48;;;;;;;21.50;13.10;;;9.30;98.70;;;;;;4952495;28;20123;-80
2021/05/26 05:28:14;;;;;;;18.27;12.45;;;9.30;98.70;;;;;;4959457;28;20031;-81
2021/05/26 05:30:40;;;;;;;21.17;11.98;;;9.20;98.60;;;;;;4976155;28;20058;-81
2021/05/26 05:33:05;;;;;;;20.27;11.98;;;9.30;98.60;;;;;;4962139;28;20026;-82
2021/05/26 05:35:31;;;;;;;17.90;11.10;;;9.30;98.60;;;;;;4944759;28;20035;-83
2021/05/26 05:37:58;;;;;;;21.75;12.02;;;9.30;98.60;;;;;;4948211;28;20065;-82
2021/05/26 05:40:24;;;;;;;17.38;10.75;;;9.30;98.50;;;;;;4985100;28;20030;-82
2021/05/26 05:42:50;;;;;;;28.80;12.52;;;9.30;98.50;;;;;;4962082;28;20034;-81
2021/05/26 05:45:16;;;;;;;18.05;12.05;;;9.30;98.50;;;;;;4985323;28;20528;-82
2021/05/26 05:47:42;;;;;;;17.00;11.07;;;9.30;98.40;;;;;;4951614;28;20030;-82
2021/05/26 05:50:15;;;;;;;17.98;11.00;;;9.30;98.40;;;;;;4968724;28;20058;-81
2021/05/26 05:52:42;;;;;;;17.55;11.20;;;9.40;98.50;;;;;;4951844;28;20042;-82
2021/05/26 05:55:09;;;;;;;18.83;10.70;;;9.40;98.40;;;;;;4969329;28;20042;-81
2021/05/26 05:57:37;;;;;;;17.15;11.18;;;9.40;98.30;;;;;;4961068;28;20038;-80
2021/05/26 06:00:05;;;;;;;12.95;9.50;;;9.40;98.30;;;;;;4963972;28;20730;-81
2021/05/26 06:02:31;;;;;;;16.70;8.73;;;9.50;98.30;;;;;;4964591;28;20118;-81
2021/05/26 06:04:56;;;;;;;14.65;8.35;;;9.40;98.10;;;;;;4953720;28;20577;-81
2021/05/26 06:07:22;;;;;;;10.85;7.15;;;9.40;98.10;;;;;;4966259;28;20046;-82
2021/05/26 06:09:51;;;;;;;11.15;7.45;;;9.40;98.10;;;;;;4966906;28;20034;-81
2021/05/26 06:12:17;;;;;;;8.93;7.18;;;9.40;98.10;;;;;;4967297;28;20043;-81
2021/05/26 06:14:43;;;;;;;10.82;6.90;;;9.40;98.10;;;;;;4949740;28;20039;-81
2021/05/26 06:17:09;;;;;;;8.68;6.25;;;9.40;98.00;;;;;;4978120;28;20046;-81
2021/05/26 06:19:34;;;;;;;11.57;6.43;;;9.50;98.00;;;;;;4964254;28;20454;-82
2021/05/26 06:22:00;;;;;;;10.73;6.88;;;9.50;97.90;;;;;;4968505;28;20050;-81
2021/05/26 06:24:26;;;;;;;10.57;6.40;;;9.60;97.80;;;;;;4970434;28;20121;-82
2021/05/26 06:26:52;;;;;;;11.93;7.15;;;9.60;97.70;;;;;;4960890;28;20031;-82
2021/05/26 06:29:18;;;;;;;12.65;7.93;;;9.70;97.80;;;;;;4980611;28;20039;-83
2021/05/26 06:31:44;;;;;;;15.77;8.43;;;9.80;97.80;;;;;;4950206;28;20037;-84
2021/05/26 06:34:10;;;;;;;15.23;9.02;;;9.90;97.70;;;;;;4935814;28;20125;-83
2021/05/26 06:36:36;;;;;;;17.35;10.13;;;10.10;97.60;;;;;;4949570;28;20067;-84
2021/05/26 06:39:03;;;;;;;12.40;9.20;;;10.10;97.50;;;;;;4950671;28;20038;-83
2021/05/26 06:41:29;;;;;;;24.92;10.75;;;10.00;97.40;;;;;;4987630;28;20398;-83
2021/05/26 06:43:57;;;;;;;16.20;10.63;;;10.10;97.50;;;;;;4953283;28;20045;-82
2021/05/26 06:46:23;;;;;;;15.30;10.35;;;10.10;97.50;;;;;;4964527;28;20038;-84
2021/05/26 06:48:49;;;;;;;19.90;11.43;;;10.20;97.60;;;;;;4964605;28;20097;-83
2021/05/26 06:51:14;;;;;;;16.95;11.18;;;10.30;97.90;;;;;;4937407;28;20030;-83
2021/05/26 06:53:40;;;;;;;21.02;11.63;;;10.40;97.40;;;;;;4950532;28;20034;-82
2021/05/26 06:56:06;;;;;;;17.48;11.68;;;10.40;97.40;;;;;;4965321;28;20035;-82
2021/05/26 06:58:32;;;;;;;21.42;12.52;;;10.40;97.40;;;;;;4965407;28;20484;-83
2021/05/26 07:00:58;;;;;;;25.90;13.52;;;10.40;97.40;;;;;;4958688;28;20425;-83
2021/05/26 07:03:24;;;;;;;24.48;14.65;;;10.30;97.30;;;;;;4964183;28;20058;-82
2021/05/26 07:05:49;;;;;;;22.90;15.02;;;10.30;97.30;;;;;;4966641;28;20115;-82
2021/05/26 07:08:15;;;;;;;26.42;16.80;;;10.20;97.30;;;;;;4949137;28;20035;-82
2021/05/26 07:10:42;;;;;;;33.50;16.52;;;10.10;97.40;;;;;;4946997;28;20520;-82
2021/05/26 07:13:07;;;;;;;31.45;17.25;;;10.00;97.60;;;;;;4950322;28;20043;-83
2021/05/26 07:15:34;;;;;;;32.35;19.25;;;10.00;97.70;;;;;;4938068;28;20039;-82
2021/05/26 07:18:04;;;;;;;28.38;18.90;;;10.00;97.90;;;;;;4950999;28;20059;-82
2021/05/26 07:20:31;;;;;;;31.73;20.25;;;9.90;98.00;;;;;;4965745;28;20093;-82
2021/05/26 07:22:57;;;;;;;34.00;18.55;;;10.00;98.20;;;;;;4966173;28;20034;-81
2021/05/26 07:25:23;;;;;;;24.25;17.17;;;10.00;98.30;;;;;;4965120;28;20485;-82
2021/05/26 07:27:50;;;;;;;32.85;19.08;;;10.00;98.30;;;;;;4962663;28;20039;-82
2021/05/26 07:30:17;;;;;;;27.88;18.83;;;10.00;98.30;;;;;;4989715;28;20498;-82
2021/05/26 07:32:43;;;;;;;28.08;18.30;;;10.00;98.40;;;;;;4967505;28;20093;-82
2021/05/26 07:35:10;;;;;;;33.80;19.48;;;10.00;98.50;;;;;;4963150;28;20442;-82
2021/05/26 07:37:35;;;;;;;35.35;21.17;;;10.00;98.50;;;;;;4932775;28;20054;-81
2021/05/26 07:40:02;;;;;;;33.83;21.55;;;10.10;98.60;;;;;;4958665;28;20526;-82
2021/05/26 07:42:28;;;;;;;32.25;21.05;;;10.10;98.60;;;;;;4958442;28;20674;-82
2021/05/26 07:44:54;;;;;;;32.00;20.98;;;10.10;98.60;;;;;;4962678;28;21613;-81
2021/05/26 07:47:19;;;;;;;31.83;21.52;;;10.10;98.60;;;;;;4990345;28;20065;-82
2021/05/26 07:49:45;;;;;;;35.55;22.98;;;10.20;98.60;;;;;;4931283;28;20794;-82
2021/05/26 07:52:13;;;;;;;39.55;24.45;;;10.20;98.60;;;;;;4952068;28;20098;-81
2021/05/26 07:54:40;;;;;;;32.08;21.52;;;10.20;98.60;;;;;;4968768;28;20062;-82
2021/05/26 07:57:06;;;;;;;47.33;25.65;;;10.20;98.60;;;;;;4941285;28;20102;-82
2021/05/26 07:59:32;;;;;;;44.42;26.63;;;10.20;98.70;;;;;;4954134;28;20071;-82
2021/05/26 08:01:58;;;;;;;43.00;24.90;;;10.20;98.70;;;;;;4951157;28;20035;-82
2021/05/26 08:04:24;;;;;;;49.13;27.05;;;10.20;98.80;;;;;;4965288;28;20113;-82
2021/05/26 08:06:51;;;;;;;52.55;29.08;;;10.20;98.80;;;;;;4960524;28;20119;-83
2021/05/26 08:09:16;;;;;;;49.03;30.98;;;10.10;98.80;;;;;;4935483;28;20539;-84
2021/05/26 08:11:44;;;;;;;50.92;28.23;;;10.10;98.90;;;;;;4956499;28;20035;-86
2021/05/26 08:14:09;;;;;;;20.35;12.05;;;10.10;99.00;;;;;;4979500;28;20597;-83
2021/05/26 08:16:35;;;;;;;29.60;18.70;;;10.10;99.00;;;;;;4956243;28;20062;-86
2021/05/26 08:19:01;;;;;;;33.90;20.98;;;10.00;98.80;;;;;;4953104;28;20526;-84
2021/05/26 08:21:27;;;;;;;16.17;8.52;;;10.00;98.90;;;;;;4952875;28;20698;-83
2021/05/26 08:23:53;;;;;;;13.65;7.30;;;9.90;98.90;;;;;;4968420;28;20034;-83
2021/05/26 08:26:22;;;;;;;15.10;6.85;;;9.80;98.80;;;;;;4970606;28;20047;-82
2021/05/26 08:28:52;;;;;;;12.90;6.70;;;9.70;98.80;;;;;;4946024;28;20035;-82
2021/05/26 08:31:21;;;;;;;9.90;5.63;;;9.70;99.10;;;;;;4980857;28;20042;-84
2021/05/26 08:33:48;;;;;;;10.45;4.50;;;9.60;98.80;;;;;;4952591;28;20063;-84
2021/05/26 08:36:14;;;;;;;8.65;5.50;;;9.50;98.80;;;;;;4969743;28;20494;-83
2021/05/26 08:38:40;;;;;;;9.15;5.40;;;9.40;98.80;;;;;;4964792;28;20045;-83
2021/05/26 08:41:08;;;;;;;11.27;6.15;;;9.40;98.90;;;;;;4970989;28;20031;-82
2021/05/26 08:43:36;;;;;;;16.95;10.10;;;9.40;98.90;;;;;;4963192;28;21250;-82
2021/05/26 08:46:06;;;;;;;14.35;8.00;;;9.50;99.10;;;;;;4967386;28;20039;-83
2021/05/26 08:48:33;;;;;;;15.57;9.85;;;9.60;99.20;;;;;;4939905;28;20529;-83
2021/05/26 08:51:01;;;;;;;17.70;12.57;;;9.80;99.20;;;;;;4936547;28;20043;-82
2021/05/26 08:53:28;;;;;;;23.77;12.93;;;9.90;99.30;;;;;;4958885;28;20062;-83
2021/05/26 08:55:55;;;;;;;23.45;14.27;;;10.10;99.30;;;;;;4949277;28;20188;-84
2021/05/26 08:58:21;;;;;;;25.48;13.60;;;10.20;99.30;;;;;;4961758;28;20066;-83
2021/05/26 09:00:47;;;;;;;22.17;14.00;;;10.50;99.30;;;;;;4955056;28;20153;-83
2021/05/26 09:03:14;;;;;;;26.20;16.70;;;10.50;99.10;;;;;;4962932;28;20035;-86
2021/05/26 09:05:42;;;;;;;21.05;12.30;;;10.60;99.20;;;;;;4960384;28;20034;-84
2021/05/26 09:08:22;;;;;;;28.35;15.48;;;10.80;99.20;;;;;;4956869;28;20046;-85
2021/05/26 09:10:54;;;;;;;15.13;10.55;;;10.90;99.40;;;;;;4958986;28;20117;-85
2021/05/26 09:13:35;;;;;;;14.63;9.02;;;11.10;99.10;;;;;;4984926;28;20070;-84
2021/05/26 09:16:08;;;;;;;11.43;6.35;;;11.30;98.80;;;;;;4970233;28;20034;-84
2021/05/26 09:18:56;;;;;;;9.95;6.13;;;11.30;98.30;;;;;;4958056;28;20046;-86
2021/05/26 09:21:37;;;;;;;13.65;6.35;;;11.30;97.70;;;;;;4987318;28;20058;-84
2021/05/26 09:24:18;;;;;;;13.65;6.90;;;11.30;97.50;;;;;;4975952;28;20098;-84
2021/05/26 09:26:52;;;;;;;9.43;5.03;;;11.30;97.50;;;;;;4976436;28;20125;-84
2021/05/26 09:29:25;;;;;;;10.13;5.32;;;11.30;97.10;;;;;;4974357;28;20055;-84
2021/05/26 09:32:08;;;;;;;9.65;7.30;;;11.20;97.10;;;;;;4982083;28;20042;-83
2021/05/26 09:34:39;;;;;;;11.38;6.47;;;11.20;97.30;;;;;;4972640;28;20058;-82
2021/05/26 09:37:05;;;;;;;10.80;6.97;;;11.30;97.40;;;;;;4969529;28;20039;-83
2021/05/26 09:39:52;;;;;;;11.80;6.03;;;11.30;97.40;;;;;;4983005;28;20114;-84
2021/05/26 09:42:25;;;;;;;7.78;4.68;;;11.30;97.30;;;;;;4952720;28;20117;-84
2021/05/26 09:45:11;;;;;;;6.55;3.83;;;11.30;97.20;;;;;;4953730;28;20034;-83
2021/05/26 09:47:41;;;;;;;8.20;4.60;;;11.10;96.90;;;;;;4968731;28;20308;-82
2021/05/26 09:50:23;;;;;;;9.38;5.25;;;11.00;97.10;;;;;;4954807;28;20039;-82
2021/05/26 09:53:12;;;;;;;13.53;7.33;;;10.90;97.10;;;;;;4965643;28;20545;-83
2021/05/26 09:55:40;;;;;;;10.85;6.63;;;10.90;97.30;;;;;;4953061;28;20043;-83
2021/05/26 09:58:09;;;;;;;7.78;6.95;;;10.90;97.40;;;;;;4967012;28;20055;-82
2021/05/26 10:00:38;;;;;;;13.93;9.32;;;10.90;97.30;;;;;;4998853;28;20038;-83
2021/05/26 10:03:05;;;;;;;12.73;9.35;;;11.00;97.50;;;;;;4983393;28;20055;-85
2021/05/26 10:05:31;;;;;;;10.40;7.75;;;11.20;97.60;;;;;;4952022;28;20038;-84
2021/05/26 10:07:59;;;;;;;15.18;11.25;;;11.30;97.60;;;;;;4976415;28;20510;-83
2021/05/26 10:10:30;;;;;;;12.43;7.07;;;11.50;97.60;;;;;;4954178;28;20055;-83
2021/05/26 10:13:04;;;;;;;10.98;6.53;;;11.70;97.60;;;;;;4959857;28;20110;-83
2021/05/26 10:15:32;;;;;;;9.68;7.57;;;11.80;97.40;;;;;;4963354;28;20057;-84
2021/05/26 10:18:00;;;;;;;7.97;5.13;;;12.00;97.30;;;;;;4951021;28;20055;-83
2021/05/26 10:20:33;;;;;;;6.13;4.30;;;11.90;97.10;;;;;;5002368;28;20031;-83
2021/05/26 10:23:01;;;;;;;5.63;3.33;;;11.90;96.80;;;;;;4977387;28;20053;-82
2021/05/26 10:25:28;;;;;;;6.40;3.10;;;11.80;96.60;;;;;;4966768;28;20430;-83
2021/05/26 10:27:56;;;;;;;2.70;2.50;;;11.70;96.50;;;;;;4971152;28;20018;-84
2021/05/26 10:30:26;;;;;;;4.57;2.78;;;11.70;96.40;;;;;;4971677;28;20035;-83
2021/05/26 10:32:58;;;;;;;3.40;2.10;;;11.60;96.10;;;;;;4983371;28;20494;-84
2021/05/26 10:35:26;;;;;;;4.55;2.10;;;11.60;95.90;;;;;;4964210;28;20035;-83
2021/05/26 10:38:04;;;;;;;3.97;2.63;;;11.60;95.80;;;;;;4970560;28;20038;-84
2021/05/26 10:40:34;;;;;;;4.75;2.15;;;11.60;95.90;;;;;;4962007;28;20178;-84
2021/05/26 10:43:22;;;;;;;3.53;2.53;;;11.90;96.00;;;;;;4964517;28;20493;-84
2021/05/26 10:45:49;;;;;;;3.97;1.80;;;12.10;95.90;;;;;;4967093;28;20035;-86
2021/05/26 10:48:43;;;;;;;2.05;1.35;;;12.20;95.10;;;;;;4985694;28;20057;-84
2021/05/26 10:51:11;;;;;;;3.95;1.60;;;12.20;94.30;;;;;;4968518;28;20409;-83
2021/05/26 10:53:39;;;;;;;3.75;1.30;;;12.10;94.40;;;;;;4950930;28;20110;-85
2021/05/26 10:56:05;;;;;;;2.80;1.20;;;12.10;94.20;;;;;;4962164;28;20445;-88
2021/05/26 10:58:45;;;;;;;3.33;1.65;;;12.20;94.20;;;;;;4941073;28;20136;-84
2021/05/26 11:01:14;;;;;;;3.25;1.70;;;12.30;94.10;;;;;;4952597;28;20079;-85
2021/05/26 11:03:44;;;;;;;2.75;1.30;;;12.40;94.10;;;;;;4948599;28;21442;-86
2021/05/26 11:06:10;;;;;;;1.65;0.90;;;12.40;93.40;;;;;;4984917;28;20038;-85
2021/05/26 11:08:48;;;;;;;2.65;1.38;;;12.40;92.80;;;;;;4999138;28;20039;-87
2021/05/26 11:11:23;;;;;;;2.92;1.40;;;12.30;92.70;;;;;;4995613;28;20038;-86
2021/05/26 11:14:14;;;;;;;2.95;1.20;;;12.30;92.90;;;;;;4983071;28;20099;-86
2021/05/26 11:16:40;;;;;;;1.50;0.73;;;12.30;92.70;;;;;;4975610;28;20794;-87
2021/05/26 11:19:15;;;;;;;4.53;1.17;;;12.40;92.70;;;;;;4972925;28;20122;-88
2021/05/26 11:21:52;;;;;;;2.67;1.02;;;12.30;92.50;;;;;;4983007;28;20034;-83
2021/05/26 11:24:19;;;;;;;2.30;0.80;;;12.40;92.60;;;;;;4957867;28;20078;-85
2021/05/26 11:26:45;;;;;;;2.53;0.70;;;12.50;92.00;;;;;;4992467;28;20442;-87
2021/05/26 11:29:11;;;;;;;2.25;1.00;;;12.60;91.20;;;;;;4964472;28;20031;-87
2021/05/26 11:31:38;;;;;;;1.35;0.80;;;12.80;90.70;;;;;;4954477;28;20059;-87
2021/05/26 11:34:08;;;;;;;3.17;1.13;;;13.00;90.70;;;;;;4989004;28;20107;-86
2021/05/26 11:36:43;;;;;;;3.25;1.08;;;13.10;90.40;;;;;;4972643;28;20038;-88
2021/05/26 11:39:26;;;;;;;5.72;1.30;;;13.20;90.10;;;;;;4991272;28;20498;-86
2021/05/26 11:42:11;;;;;;;;;;;13.30;87.90;;;;;;4966029;28;20110;-87
2021/05/26 11:44:39;;;;;;;1.38;0.85;;;13.30;87.30;;;;;;4962778;28;19940;-85
2021/05/26 11:47:06;;;;;;;1.80;1.02;;;13.40;88.50;;;;;;4946879;28;20049;-86
2021/05/26 11:49:35;;;;;;;2.85;0.90;;;13.50;87.70;;;;;;4971382;28;20039;-85
2021/05/26 11:52:09;;;;;;;5.05;1.25;;;13.50;86.30;;;;;;4961321;28;20078;-86
2021/05/26 11:54:58;;;;;;;1.77;0.80;;;13.40;86.40;;;;;;4945183;28;20402;-87
2021/05/26 11:57:34;;;;;;;2.63;0.90;;;13.30;85.50;;;;;;4974879;28;20278;-86
2021/05/26 12:00:02;;;;;;;3.15;1.20;;;13.30;86.80;;;;;;4963827;28;20040;-84
2021/05/26 12:02:29;;;;;;;2.85;1.02;;;13.40;86.10;;;;;;4977160;28;20205;-85
2021/05/26 12:04:56;;;;;;;4.05;1.35;;;13.50;85.00;;;;;;4975296;28;20064;-83
2021/05/26 12:07:23;;;;;;;4.00;1.13;;;13.40;84.60;;;;;;4958388;28;20031;-85
2021/05/26 12:10:00;;;;;;;2.78;0.90;;;13.40;84.40;;;;;;4964863;28;20323;-86
2021/05/26 12:12:26;;;;;;;4.72;1.30;;;13.40;83.00;;;;;;4987307;28;20482;-85
2021/05/26 12:14:53;;;;;;;2.08;1.20;;;13.30;83.20;;;;;;4974744;28;20049;-86
2021/05/26 12:17:21;;;;;;;6.40;1.58;;;13.30;83.50;;;;;;4960145;28;20046;-85
2021/05/26 12:19:48;;;;;;;18.90;4.05;;;13.20;84.40;;;;;;4975900;28;20031;-85
2021/05/26 12:22:18;;;;;;;9.77;2.13;;;13.30;85.70;;;;;;4971413;28;20043;-86
2021/05/26 12:25:03;;;;;;;16.63;3.50;;;13.50;85.80;;;;;;4979815;28;20038;-85
2021/05/26 12:27:37;;;;;;;3.05;1.45;;;13.60;84.40;;;;;;4951448;28;20049;-86
2021/05/26 12:30:13;;;;;;;6.35;1.30;;;13.60;85.10;;;;;;4982504;28;20157;-87
2021/05/26 12:32:40;;;;;;;4.57;1.42;;;13.60;84.20;;;;;;4947522;28;20543;-85
2021/05/26 12:35:12;;;;;;;4.15;1.30;;;13.60;83.40;;;;;;4965614;28;20122;-87
2021/05/26 12:37:43;;;;;;;4.13;1.40;;;13.60;81.80;;;;;;4981158;28;20060;-84
2021/05/26 12:40:15;;;;;;;5.82;1.90;;;13.60;80.70;;;;;;4963557;28;20321;-86
2021/05/26 12:42:41;;;;;;;5.88;1.77;;;13.50;80.70;;;;;;4961624;28;20482;-83
2021/05/26 12:45:21;;;;;;;3.22;1.30;;;13.50;81.00;;;;;;4947843;28;20071;-86